M/y Australis — ZGAH4 — position and weather

sailwx.info

Track history (hours):
 
Tides and Currents Weather Stations Pressure Air Temp Water Temp Dewpoint Dewpoint Depression Visibility Wind Speed Wind Dir Waves Ship Positions

M/y Australis

Last reported at 2015-Jul-03 13:27 UTC. Time now 2015-Jul-03 17:21 UTC.
Position N 43°48' E 007°42'.

Length 48 m; draft 2.5 m.

Type: Pleasure craft. MMSI: 319016800.

Date/timePositionNaut miles runAvg speedWind from/ knotsBaromVisibWave heightAir tempDewpointWater temp
2015-Jul-03 13:27N 43°48' E 007°42'4 1.9
2015-Jul-03 11:33N 43°49' E 007°47'1010.2
2015-Jul-03 10:33N 43°45' E 007°34'5 5.2
2015-Jul-03 09:30N 43°45' E 007°27'9 0.9
2015-Jul-02 23:10N 43°38' E 007°18'711.3
2015-Jul-02 22:33N 43°33' E 007°11'1111.3
2015-Jul-02 21:33N 43°29' E 006°56'0 0.3
2015-Jul-02 20:27N 43°29' E 006°56'0 0.0
2015-Jul-02 19:33N 43°29' E 006°56'0 0.0
2015-Jul-02 18:29N 43°29' E 006°56'2 2.4
2015-Jul-02 17:33N 43°27' E 006°56'1212.3
2015-Jul-02 16:33N 43°15' E 006°49'1212.0
2015-Jul-02 15:33N 43°06' E 006°39'1311.7
2015-Jul-02 14:29N 42°57' E 006°26'1111.9
2015-Jul-02 13:33N 42°57' E 006°11'1212.0
2015-Jul-02 12:33N 42°60' E 005°55'1211.6
2015-Jul-02 11:31N 43°06' E 005°42'  
Track history (hours):
 
Tides and Currents Weather Stations Pressure Air Temp Water Temp Dewpoint Dewpoint Depression Visibility Wind Speed Wind Dir Waves Ship Positions

M/y Australis

Last reported at 2015-Jul-03 13:27 UTC. Time now 2015-Jul-03 17:21 UTC.
Position N 43°48' E 007°42'.

Length 48 m; draft 2.5 m.

Type: Pleasure craft. MMSI: 319016800.

Date/timePositionNaut miles runAvg speedWind from/ knotsBaromVisibWave heightAir tempDewpointWater temp
2015-Jul-03 13:27N 43°48' E 007°42'4 1.9
2015-Jul-03 11:33N 43°49' E 007°47'1010.2
2015-Jul-03 10:33N 43°45' E 007°34'5 5.2
2015-Jul-03 09:30N 43°45' E 007°27'9 0.9
2015-Jul-02 23:10N 43°38' E 007°18'711.3
2015-Jul-02 22:33N 43°33' E 007°11'1111.3
2015-Jul-02 21:33N 43°29' E 006°56'0 0.3
2015-Jul-02 20:27N 43°29' E 006°56'0 0.0
2015-Jul-02 19:33N 43°29' E 006°56'0 0.0
2015-Jul-02 18:29N 43°29' E 006°56'2 2.4
2015-Jul-02 17:33N 43°27' E 006°56'1212.3
2015-Jul-02 16:33N 43°15' E 006°49'1212.0
2015-Jul-02 15:33N 43°06' E 006°39'1311.7
2015-Jul-02 14:29N 42°57' E 006°26'1111.9
2015-Jul-02 13:33N 42°57' E 006°11'1212.0
2015-Jul-02 12:33N 42°60' E 005°55'1211.6
2015-Jul-02 11:31N 43°06' E 005°42'  

Dump ship's entire track history